sensor_id;sensor_type;location;lat;lon;timestamp;pressure;altitude;pressure_sealevel;temperature;humidity
21664;BME280;10993;52.510;13.456;2023-05-27T00:02:14;56348.22;;;-146.93;63.21
21664;BME280;10993;52.510;13.456;2023-05-27T00:07:16;56321.88;;;-146.93;64.01
21664;BME280;10993;52.510;13.456;2023-05-27T00:12:16;56332.00;;;-146.93;63.70
21664;BME280;10993;52.510;13.456;2023-05-27T00:17:17;56257.09;;;-146.93;64.03
21664;BME280;10993;52.510;13.456;2023-05-27T00:22:19;56303.66;;;-146.93;64.42
21664;BME280;10993;52.510;13.456;2023-05-27T00:27:20;56321.88;;;-146.93;64.68
21664;BME280;10993;52.510;13.456;2023-05-27T00:32:20;56244.94;;;-146.93;65.57
21664;BME280;10993;52.510;13.456;2023-05-27T00:37:22;56329.97;;;-146.93;65.63
21664;BME280;10993;52.510;13.456;2023-05-27T00:42:23;56263.19;;;-146.93;66.08
21664;BME280;10993;52.510;13.456;2023-05-27T00:47:23;56360.34;;;-146.93;66.00
21664;BME280;10993;52.510;13.456;2023-05-27T00:52:28;56319.84;;;-146.93;66.30
21664;BME280;10993;52.510;13.456;2023-05-27T00:57:29;56257.09;;;-146.93;66.91
21664;BME280;10993;52.510;13.456;2023-05-27T01:02:29;57048.78;;;-146.93;67.19
21664;BME280;10993;52.510;13.456;2023-05-27T01:07:37;56287.47;;;-146.93;67.56
21664;BME280;10993;52.510;13.456;2023-05-27T01:12:47;56323.91;;;-146.93;68.07
21664;BME280;10993;52.510;13.456;2023-05-27T01:17:51;56305.69;;;-146.93;68.88
21664;BME280;10993;52.510;13.456;2023-05-27T01:22:56;56313.78;;;-146.93;69.11
21664;BME280;10993;52.510;13.456;2023-05-27T01:27:57;56297.59;;;-146.93;69.38
21664;BME280;10993;52.510;13.456;2023-05-27T01:33:03;56293.53;;;-146.93;69.65
21664;BME280;10993;52.510;13.456;2023-05-27T01:38:10;56319.84;;;-146.93;70.10
21664;BME280;10993;52.510;13.456;2023-05-27T01:43:13;56338.09;;;-146.93;70.69
21664;BME280;10993;52.510;13.456;2023-05-27T01:48:15;56309.75;;;-146.93;70.61
21664;BME280;10993;52.510;13.456;2023-05-27T01:53:17;56257.09;;;-146.93;71.00
21664;BME280;10993;52.510;13.456;2023-05-27T01:58:18;56311.75;;;-146.93;71.10
21664;BME280;10993;52.510;13.456;2023-05-27T02:03:18;56301.63;;;-146.93;71.47
21664;BME280;10993;52.510;13.456;2023-05-27T02:08:20;56293.53;;;-146.93;71.78
21664;BME280;10993;52.510;13.456;2023-05-27T02:13:23;56281.41;;;-146.93;72.06
21664;BME280;10993;52.510;13.456;2023-05-27T02:18:23;56321.88;;;-146.93;71.97
21664;BME280;10993;52.510;13.456;2023-05-27T02:23:26;56228.75;;;-146.93;72.07
21664;BME280;10993;52.510;13.456;2023-05-27T02:28:27;56317.84;;;-146.93;72.66
21664;BME280;10993;52.510;13.456;2023-05-27T02:33:27;56244.94;;;-146.93;73.39
21664;BME280;10993;52.510;13.456;2023-05-27T02:38:29;56287.47;;;-146.93;73.79
21664;BME280;10993;52.510;13.456;2023-05-27T02:43:30;56285.44;;;-146.93;73.96
21664;BME280;10993;52.510;13.456;2023-05-27T02:48:30;56228.75;;;-146.93;74.20
21664;BME280;10993;52.510;13.456;2023-05-27T02:53:32;56297.59;;;-146.93;74.07
21664;BME280;10993;52.510;13.456;2023-05-27T02:58:32;56275.31;;;-146.93;74.73
21664;BME280;10993;52.510;13.456;2023-05-27T03:03:32;56240.91;;;-146.93;74.83
21664;BME280;10993;52.510;13.456;2023-05-27T03:08:35;56295.56;;;-146.93;74.88
21664;BME280;10993;52.510;13.456;2023-05-27T03:13:35;56293.53;;;-146.93;74.71
21664;BME280;10993;52.510;13.456;2023-05-27T03:18:36;56309.75;;;-146.93;74.45
21664;BME280;10993;52.510;13.456;2023-05-27T03:23:37;56285.44;;;-146.93;74.54
21664;BME280;10993;52.510;13.456;2023-05-27T03:28:38;56309.75;;;-146.93;73.54
21664;BME280;10993;52.510;13.456;2023-05-27T03:33:38;56332.00;;;-146.93;71.93
21664;BME280;10993;52.510;13.456;2023-05-27T03:38:40;56315.81;;;-146.93;71.19
21664;BME280;10993;52.510;13.456;2023-05-27T03:43:41;56323.91;;;-146.93;70.78
21664;BME280;10993;52.510;13.456;2023-05-27T03:48:41;56329.97;;;-146.93;69.18
21664;BME280;10993;52.510;13.456;2023-05-27T03:53:43;56376.56;;;-146.93;63.83
21664;BME280;10993;52.510;13.456;2023-05-27T03:58:43;56520.28;;;-146.93;57.49
21664;BME280;10993;52.510;13.456;2023-05-27T04:03:44;56583.06;;;-146.93;53.26
21664;BME280;10993;52.510;13.456;2023-05-27T04:08:45;56751.13;;;-146.93;48.24
21664;BME280;10993;52.510;13.456;2023-05-27T04:13:46;56795.66;;;-146.93;44.41
21664;BME280;10993;52.510;13.456;2023-05-27T04:18:47;57018.41;;;-146.93;41.20
21664;BME280;10993;52.510;13.456;2023-05-27T04:23:50;57038.66;;;-146.93;39.82
21664;BME280;10993;52.510;13.456;2023-05-27T04:28:50;57109.53;;;-146.93;38.48
21664;BME280;10993;52.510;13.456;2023-05-27T04:33:51;57216.84;;;-146.93;37.06
21664;BME280;10993;52.510;13.456;2023-05-27T04:38:54;57467.97;;;-146.93;34.22
21664;BME280;10993;52.510;13.456;2023-05-27T04:43:55;57836.59;;;-146.93;32.92
21664;BME280;10993;52.510;13.456;2023-05-27T04:48:57;58330.84;;;-146.93;30.67
21664;BME280;10993;52.510;13.456;2023-05-27T04:53:58;58667.13;;;-146.93;29.00
21664;BME280;10993;52.510;13.456;2023-05-27T04:58:59;59060.19;;;-146.93;28.07
21664;BME280;10993;52.510;13.456;2023-05-27T05:03:59;59422.88;;;-146.93;26.89
21664;BME280;10993;52.510;13.456;2023-05-27T05:09:13;59169.59;;;-146.93;27.20
21664;BME280;10993;52.510;13.456;2023-05-27T05:14:13;59072.34;;;-146.93;27.33
21664;BME280;10993;52.510;13.456;2023-05-27T05:19:14;59556.63;;;-146.93;26.02
21664;BME280;10993;52.510;13.456;2023-05-27T05:24:15;59972.09;;;-146.93;25.17
21664;BME280;10993;52.510;13.456;2023-05-27T05:29:16;61378.94;;;-146.93;24.44
21664;BME280;10993;52.510;13.456;2023-05-27T05:34:16;60691.66;;;-146.93;24.02
21664;BME280;10993;52.510;13.456;2023-05-27T05:39:18;60620.69;;;-146.93;23.53
21664;BME280;10993;52.510;13.456;2023-05-27T05:44:18;60493.00;;;-146.93;23.77
21664;BME280;10993;52.510;13.456;2023-05-27T05:49:19;61526.94;;;-146.93;22.43
21664;BME280;10993;52.510;13.456;2023-05-27T05:54:21;61168.06;;;-146.93;22.45
21664;BME280;10993;52.510;13.456;2023-05-27T05:59:21;61490.44;;;-146.93;22.00
21664;BME280;10993;52.510;13.456;2023-05-27T06:04:21;62441.53;;;-146.93;21.04
21664;BME280;10993;52.510;13.456;2023-05-27T06:09:23;61565.47;;;-146.93;21.36
21664;BME280;10993;52.510;13.456;2023-05-27T06:14:25;61504.63;;;-146.93;22.18
21664;BME280;10993;52.510;13.456;2023-05-27T06:19:25;60235.56;;;-146.93;22.32
21664;BME280;10993;52.510;13.456;2023-05-27T06:24:27;59832.25;;;-146.93;22.04
21664;BME280;10993;52.510;13.456;2023-05-27T06:29:27;60199.09;;;-146.93;21.89
21664;BME280;10993;52.510;13.456;2023-05-27T06:34:27;61074.81;;;-146.93;20.83
21664;BME280;10993;52.510;13.456;2023-05-27T06:39:29;61472.19;;;-146.93;19.82
21664;BME280;10993;52.510;13.456;2023-05-27T06:44:29;61192.41;;;-146.93;19.87
21664;BME280;10993;52.510;13.456;2023-05-27T06:49:29;61455.97;;;-146.93;19.25
21664;BME280;10993;52.510;13.456;2023-05-27T06:54:31;61466.13;;;-146.93;19.17
21664;BME280;10993;52.510;13.456;2023-05-27T06:59:32;60762.59;;;-146.93;19.47
21664;BME280;10993;52.510;13.456;2023-05-27T07:04:32;59349.94;;;-146.93;20.94
21664;BME280;10993;52.510;13.456;2023-05-27T07:09:34;59714.69;;;-146.93;20.93
21664;BME280;10993;52.510;13.456;2023-05-27T07:14:34;60391.66;;;-146.93;20.48
21664;BME280;10993;52.510;13.456;2023-05-27T07:19:35;60199.09;;;-146.93;20.10
21664;BME280;10993;52.510;13.456;2023-05-27T07:24:36;61180.22;;;-146.93;19.14
21664;BME280;10993;52.510;13.456;2023-05-27T07:29:37;62494.28;;;-146.93;18.19
21664;BME280;10993;52.510;13.456;2023-05-27T07:34:37;61956.84;;;-146.93;18.65
21664;BME280;10993;52.510;13.456;2023-05-27T07:39:39;62544.97;;;-146.93;18.03
21664;BME280;10993;52.510;13.456;2023-05-27T07:44:39;64543.41;;;-146.93;16.79
21664;BME280;10993;52.510;13.456;2023-05-27T07:49:39;66382.59;;;-146.93;16.22
21664;BME280;10993;52.510;13.456;2023-05-27T07:54:41;66293.25;;;-146.93;16.42
21664;BME280;10993;52.510;13.456;2023-05-27T07:59:41;63222.50;;;-146.93;17.33
21664;BME280;10993;52.510;13.456;2023-05-27T08:04:42;63532.88;;;-146.93;17.45
21664;BME280;10993;52.510;13.456;2023-05-27T08:09:45;64908.72;;;-146.93;16.51
21664;BME280;10993;52.510;13.456;2023-05-27T08:14:45;63701.28;;;-146.93;16.38
21664;BME280;10993;52.510;13.456;2023-05-27T08:19:45;65330.91;;;-146.93;15.90
21664;BME280;10993;52.510;13.456;2023-05-27T08:24:47;65925.75;;;-146.93;15.56
21664;BME280;10993;52.510;13.456;2023-05-27T08:29:49;65284.22;;;-146.93;15.68
21664;BME280;10993;52.510;13.456;2023-05-27T08:34:50;65641.50;;;-146.93;15.71
21664;BME280;10993;52.510;13.456;2023-05-27T08:39:52;66116.59;;;-146.93;15.29
21664;BME280;10993;52.510;13.456;2023-05-27T08:44:52;65566.41;;;-146.93;15.77
21664;BME280;10993;52.510;13.456;2023-05-27T08:49:52;65393.84;;;-146.93;16.13
21664;BME280;10993;52.510;13.456;2023-05-27T08:54:54;66138.94;;;-146.93;15.87
21664;BME280;10993;52.510;13.456;2023-05-27T08:59:56;65775.50;;;-146.93;15.70
21664;BME280;10993;52.510;13.456;2023-05-27T09:04:56;63190.03;;;-146.93;16.42
21664;BME280;10993;52.510;13.456;2023-05-27T09:09:59;63121.06;;;-146.93;16.37
21664;BME280;10993;52.510;13.456;2023-05-27T09:14:59;62510.50;;;-146.93;16.85
21664;BME280;10993;52.510;13.456;2023-05-27T09:20:00;61599.94;;;-146.93;17.07
21664;BME280;10993;52.510;13.456;2023-05-27T09:25:02;60608.53;;;-146.93;18.11
21664;BME280;10993;52.510;13.456;2023-05-27T09:30:06;60385.56;;;-146.93;18.36
21664;BME280;10993;52.510;13.456;2023-05-27T09:35:07;60904.50;;;-146.93;18.06
21664;BME280;10993;52.510;13.456;2023-05-27T09:40:13;62522.66;;;-146.93;17.00
21664;BME280;10993;52.510;13.456;2023-05-27T09:45:18;62498.31;;;-146.93;16.70
21664;BME280;10993;52.510;13.456;2023-05-27T09:50:21;62644.38;;;-146.93;16.89
21664;BME280;10993;52.510;13.456;2023-05-27T09:55:23;61808.81;;;-146.93;17.15
21664;BME280;10993;52.510;13.456;2023-05-27T10:00:26;59836.31;;;-146.93;18.35
21664;BME280;10993;52.510;13.456;2023-05-27T10:05:27;60146.38;;;-146.93;18.22
21664;BME280;10993;52.510;13.456;2023-05-27T10:10:30;59961.94;;;-146.93;18.46
21664;BME280;10993;52.510;13.456;2023-05-27T10:15:31;60361.25;;;-146.93;18.52
21664;BME280;10993;52.510;13.456;2023-05-27T10:20:33;60843.69;;;-146.93;17.97
21664;BME280;10993;52.510;13.456;2023-05-27T10:25:38;61604.00;;;-146.93;17.83
21664;BME280;10993;52.510;13.456;2023-05-27T10:30:43;62246.84;;;-146.93;17.72
21664;BME280;10993;52.510;13.456;2023-05-27T10:35:49;63455.78;;;-146.93;17.29
21664;BME280;10993;52.510;13.456;2023-05-27T10:40:58;63017.59;;;-146.93;16.98
21664;BME280;10993;52.510;13.456;2023-05-27T10:46:03;63017.59;;;-146.93;17.55
21664;BME280;10993;52.510;13.456;2023-05-27T10:51:04;61581.69;;;-146.93;17.89
21664;BME280;10993;52.510;13.456;2023-05-27T10:56:07;60667.31;;;-146.93;18.44
21664;BME280;10993;52.510;13.456;2023-05-27T11:01:10;61569.53;;;-146.93;17.98
21664;BME280;10993;52.510;13.456;2023-05-27T11:06:12;60172.75;;;-146.93;18.74
21664;BME280;10993;52.510;13.456;2023-05-27T11:11:15;59643.78;;;-146.93;19.85
21664;BME280;10993;52.510;13.456;2023-05-27T11:16:15;59793.75;;;-146.93;19.65
21664;BME280;10993;52.510;13.456;2023-05-27T11:21:16;60276.09;;;-146.93;18.86
21664;BME280;10993;52.510;13.456;2023-05-27T11:26:19;59303.34;;;-146.93;19.85
21664;BME280;10993;52.510;13.456;2023-05-27T11:31:21;58553.69;;;-146.93;20.91
21664;BME280;10993;52.510;13.456;2023-05-27T11:36:25;58687.38;;;-146.93;20.76
21664;BME280;10993;52.510;13.456;2023-05-27T11:41:28;58503.03;;;-146.93;21.12
21664;BME280;10993;52.510;13.456;2023-05-27T11:46:35;58377.44;;;-146.93;21.21
21664;BME280;10993;52.510;13.456;2023-05-27T11:51:37;58685.34;;;-146.93;20.96
21664;BME280;10993;52.510;13.456;2023-05-27T11:56:39;58630.66;;;-146.93;20.76
21664;BME280;10993;52.510;13.456;2023-05-27T12:01:39;58679.28;;;-146.93;20.90
21664;BME280;10993;52.510;13.456;2023-05-27T12:06:40;58695.50;;;-146.93;20.88
21664;BME280;10993;52.510;13.456;2023-05-27T12:11:45;58182.97;;;-146.93;22.18
21664;BME280;10993;52.510;13.456;2023-05-27T12:16:45;57917.59;;;-146.93;22.59
21664;BME280;10993;52.510;13.456;2023-05-27T12:21:46;57820.38;;;-146.93;23.08
21664;BME280;10993;52.510;13.456;2023-05-27T12:26:47;57609.75;;;-146.93;23.39
21664;BME280;10993;52.510;13.456;2023-05-27T12:31:48;57621.91;;;-146.93;23.98
21664;BME280;10993;52.510;13.456;2023-05-27T12:36:48;57662.41;;;-146.93;23.99
21664;BME280;10993;52.510;13.456;2023-05-27T12:41:50;57654.31;;;-146.93;23.34
21664;BME280;10993;52.510;13.456;2023-05-27T12:46:50;57553.03;;;-146.93;24.19
21664;BME280;10993;52.510;13.456;2023-05-27T12:51:51;57435.56;;;-146.93;23.87
21664;BME280;10993;52.510;13.456;2023-05-27T12:56:52;57459.88;;;-146.93;23.68
21664;BME280;10993;52.510;13.456;2023-05-27T13:01:53;57504.44;;;-146.93;24.16
21664;BME280;10993;52.510;13.456;2023-05-27T13:06:53;57563.16;;;-146.93;23.50
21664;BME280;10993;52.510;13.456;2023-05-27T13:11:56;57474.06;;;-146.93;23.59
21664;BME280;10993;52.510;13.456;2023-05-27T13:16:57;57455.81;;;-146.93;23.79
21664;BME280;10993;52.510;13.456;2023-05-27T13:21:57;57567.22;;;-146.93;23.88
21664;BME280;10993;52.510;13.456;2023-05-27T13:26:59;57121.69;;;-146.93;24.60
21664;BME280;10993;52.510;13.456;2023-05-27T13:32:00;57407.22;;;-146.93;24.31
21664;BME280;10993;52.510;13.456;2023-05-27T13:37:02;57524.69;;;-146.93;25.00
21664;BME280;10993;52.510;13.456;2023-05-27T13:42:04;57638.09;;;-146.93;24.77
21664;BME280;10993;52.510;13.456;2023-05-27T13:47:05;57587.47;;;-146.93;24.42
21664;BME280;10993;52.510;13.456;2023-05-27T13:52:06;57569.25;;;-146.93;24.80
21664;BME280;10993;52.510;13.456;2023-05-27T13:57:08;57476.06;;;-146.93;25.10
21664;BME280;10993;52.510;13.456;2023-05-27T14:02:08;57496.31;;;-146.93;25.14
21664;BME280;10993;52.510;13.456;2023-05-27T14:07:09;57399.13;;;-146.93;25.17
21664;BME280;10993;52.510;13.456;2023-05-27T14:12:11;57502.41;;;-146.93;24.83
21664;BME280;10993;52.510;13.456;2023-05-27T14:17:11;57431.53;;;-146.93;24.73
21664;BME280;10993;52.510;13.456;2023-05-27T14:22:12;57490.25;;;-146.93;24.75
21664;BME280;10993;52.510;13.456;2023-05-27T14:27:14;57500.38;;;-146.93;24.67
21664;BME280;10993;52.510;13.456;2023-05-27T14:32:14;57463.94;;;-146.93;24.84
21664;BME280;10993;52.510;13.456;2023-05-27T14:37:17;57374.81;;;-146.93;24.62
21664;BME280;10993;52.510;13.456;2023-05-27T14:42:19;57472.03;;;-146.93;24.01
21664;BME280;10993;52.510;13.456;2023-05-27T14:47:20;57411.28;;;-146.93;24.02
21664;BME280;10993;52.510;13.456;2023-05-27T14:52:22;57415.31;;;-146.93;24.50
21664;BME280;10993;52.510;13.456;2023-05-27T14:57:23;57488.22;;;-146.93;23.87
21664;BME280;10993;52.510;13.456;2023-05-27T15:02:24;57496.31;;;-146.93;23.44
21664;BME280;10993;52.510;13.456;2023-05-27T15:07:25;57465.94;;;-146.93;23.74
21664;BME280;10993;52.510;13.456;2023-05-27T15:12:27;57472.03;;;-146.93;23.59
21664;BME280;10993;52.510;13.456;2023-05-27T15:17:28;57536.84;;;-146.93;23.95
21664;BME280;10993;52.510;13.456;2023-05-27T15:22:28;57354.56;;;-146.93;24.21
21664;BME280;10993;52.510;13.456;2023-05-27T15:27:30;57887.22;;;-146.93;24.92
21664;BME280;10993;52.510;13.456;2023-05-27T15:32:31;57504.44;;;-146.93;24.97
21664;BME280;10993;52.510;13.456;2023-05-27T15:37:32;57467.97;;;-146.93;25.11
21664;BME280;10993;52.510;13.456;2023-05-27T15:42:34;57457.84;;;-146.93;25.43
21664;BME280;10993;52.510;13.456;2023-05-27T15:47:35;57455.81;;;-146.93;25.42
21664;BME280;10993;52.510;13.456;2023-05-27T15:52:35;57427.47;;;-146.93;24.98
21664;BME280;10993;52.510;13.456;2023-05-27T15:57:37;57445.69;;;-146.93;25.20
21664;BME280;10993;52.510;13.456;2023-05-27T16:02:38;57220.91;;;-146.93;26.32
21664;BME280;10993;52.510;13.456;2023-05-27T16:07:41;57461.91;;;-146.93;26.94
21664;BME280;10993;52.510;13.456;2023-05-27T16:12:44;57455.81;;;-146.93;26.79
21664;BME280;10993;52.510;13.456;2023-05-27T16:17:45;57399.13;;;-146.93;26.97
21664;BME280;10993;52.510;13.456;2023-05-27T16:22:45;57435.56;;;-146.93;26.81
21664;BME280;10993;52.510;13.456;2023-05-27T16:27:48;57393.03;;;-146.93;26.94
21664;BME280;10993;52.510;13.456;2023-05-27T16:32:48;57403.16;;;-146.93;27.11
21664;BME280;10993;52.510;13.456;2023-05-27T16:37:51;57326.22;;;-146.93;27.05
21664;BME280;10993;52.510;13.456;2023-05-27T16:42:53;57376.84;;;-146.93;27.27
21664;BME280;10993;52.510;13.456;2023-05-27T16:47:53;57350.50;;;-146.93;27.47
21664;BME280;10993;52.510;13.456;2023-05-27T16:52:54;57348.50;;;-146.93;27.69
21664;BME280;10993;52.510;13.456;2023-05-27T16:57:55;57356.59;;;-146.93;27.59
21664;BME280;10993;52.510;13.456;2023-05-27T17:02:56;57297.84;;;-146.93;27.69
21664;BME280;10993;52.510;13.456;2023-05-27T17:07:56;57305.97;;;-146.93;27.81
21664;BME280;10993;52.510;13.456;2023-05-27T17:12:58;57273.56;;;-146.93;27.85
21664;BME280;10993;52.510;13.456;2023-05-27T17:17:59;57243.19;;;-146.93;27.83
21664;BME280;10993;52.510;13.456;2023-05-27T17:22:59;57253.31;;;-146.93;27.98
21664;BME280;10993;52.510;13.456;2023-05-27T17:28:01;57152.06;;;-146.93;28.30
21664;BME280;10993;52.510;13.456;2023-05-27T17:33:02;57263.44;;;-146.93;28.18
21664;BME280;10993;52.510;13.456;2023-05-27T17:38:03;57281.66;;;-146.93;28.08
21664;BME280;10993;52.510;13.456;2023-05-27T17:43:05;57058.91;;;-146.93;28.04
21664;BME280;10993;52.510;13.456;2023-05-27T17:48:06;57267.47;;;-146.93;28.45
21664;BME280;10993;52.510;13.456;2023-05-27T17:53:10;57212.81;;;-146.93;28.62
21664;BME280;10993;52.510;13.456;2023-05-27T17:58:12;57188.50;;;-146.93;28.62
21664;BME280;10993;52.510;13.456;2023-05-27T18:03:12;57176.34;;;-146.93;28.84
21664;BME280;10993;52.510;13.456;2023-05-27T18:08:13;57180.41;;;-146.93;29.11
21664;BME280;10993;52.510;13.456;2023-05-27T18:13:14;57198.63;;;-146.93;29.28
21664;BME280;10993;52.510;13.456;2023-05-27T18:18:15;57042.69;;;-146.93;29.30
21664;BME280;10993;52.510;13.456;2023-05-27T18:23:15;56900.97;;;-146.93;29.39
21664;BME280;10993;52.510;13.456;2023-05-27T18:28:17;57028.53;;;-146.93;29.22
21664;BME280;10993;52.510;13.456;2023-05-27T18:33:17;57141.94;;;-146.93;29.16
21664;BME280;10993;52.510;13.456;2023-05-27T18:38:17;57034.59;;;-146.93;29.27
21664;BME280;10993;52.510;13.456;2023-05-27T18:43:19;57044.72;;;-146.93;29.24
21664;BME280;10993;52.510;13.456;2023-05-27T18:48:21;57046.75;;;-146.93;29.46
21664;BME280;10993;52.510;13.456;2023-05-27T18:53:22;56953.59;;;-146.93;29.46
21664;BME280;10993;52.510;13.456;2023-05-27T18:58:23;56751.13;;;-146.93;29.64
21664;BME280;10993;52.510;13.456;2023-05-27T19:03:24;56965.75;;;-146.93;30.00
21664;BME280;10993;52.510;13.456;2023-05-27T19:08:24;56961.69;;;-146.93;30.13
21664;BME280;10993;52.510;13.456;2023-05-27T19:13:26;56941.44;;;-146.93;30.11
21664;BME280;10993;52.510;13.456;2023-05-27T19:18:26;56929.31;;;-146.93;30.33
21664;BME280;10993;52.510;13.456;2023-05-27T19:23:27;56846.28;;;-146.93;30.48
21664;BME280;10993;52.510;13.456;2023-05-27T19:28:29;56913.09;;;-146.93;30.95
21664;BME280;10993;52.510;13.456;2023-05-27T19:33:29;56917.16;;;-146.93;30.89
21664;BME280;10993;52.510;13.456;2023-05-27T19:38:30;56884.75;;;-146.93;30.91
21664;BME280;10993;52.510;13.456;2023-05-27T19:43:31;56801.75;;;-146.93;31.15
21664;BME280;10993;52.510;13.456;2023-05-27T19:48:33;56856.41;;;-146.93;31.04
21664;BME280;10993;52.510;13.456;2023-05-27T19:53:34;56850.34;;;-146.93;31.31
21664;BME280;10993;52.510;13.456;2023-05-27T19:58:36;56787.56;;;-146.93;31.06
21664;BME280;10993;52.510;13.456;2023-05-27T20:03:37;56848.31;;;-146.93;31.24
21664;BME280;10993;52.510;13.456;2023-05-27T20:08:37;56868.56;;;-146.93;31.50
21664;BME280;10993;52.510;13.456;2023-05-27T20:13:39;56787.56;;;-146.93;31.60
21664;BME280;10993;52.510;13.456;2023-05-27T20:18:39;56771.38;;;-146.93;31.72
21664;BME280;10993;52.510;13.456;2023-05-27T20:23:40;56791.63;;;-146.93;31.81
21664;BME280;10993;52.510;13.456;2023-05-27T20:28:42;56775.41;;;-146.93;31.62
21664;BME280;10993;52.510;13.456;2023-05-27T20:33:42;56728.84;;;-146.93;31.76
21664;BME280;10993;52.510;13.456;2023-05-27T20:38:42;56791.63;;;-146.93;31.92
21664;BME280;10993;52.510;13.456;2023-05-27T20:43:44;56775.41;;;-146.93;32.11
21664;BME280;10993;52.510;13.456;2023-05-27T20:48:45;56736.94;;;-146.93;32.33
21664;BME280;10993;52.510;13.456;2023-05-27T20:53:46;56678.22;;;-146.93;32.42
21664;BME280;10993;52.510;13.456;2023-05-27T20:58:47;56751.13;;;-146.93;32.56
21664;BME280;10993;52.510;13.456;2023-05-27T21:03:48;56734.91;;;-146.93;32.57
21664;BME280;10993;52.510;13.456;2023-05-27T21:08:48;56722.78;;;-146.93;32.75
21664;BME280;10993;52.510;13.456;2023-05-27T21:13:50;56732.91;;;-146.93;32.93
21664;BME280;10993;52.510;13.456;2023-05-27T21:18:50;56668.09;;;-146.93;33.33
21664;BME280;10993;52.510;13.456;2023-05-27T21:23:51;56708.59;;;-146.93;33.44
21664;BME280;10993;52.510;13.456;2023-05-27T21:28:52;56560.78;;;-146.93;33.68
21664;BME280;10993;52.510;13.456;2023-05-27T21:33:53;56676.19;;;-146.93;33.90
21664;BME280;10993;52.510;13.456;2023-05-27T21:38:53;56698.47;;;-146.93;34.11
21664;BME280;10993;52.510;13.456;2023-05-27T21:43:55;56674.19;;;-146.93;34.56
21664;BME280;10993;52.510;13.456;2023-05-27T21:48:55;56680.25;;;-146.93;34.50
21664;BME280;10993;52.510;13.456;2023-05-27T21:53:56;57200.66;;;-146.93;34.85
21664;BME280;10993;52.510;13.456;2023-05-27T21:58:58;56609.38;;;-146.93;35.10
21664;BME280;10993;52.510;13.456;2023-05-27T22:03:59;56625.59;;;-146.93;35.58
21664;BME280;10993;52.510;13.456;2023-05-27T22:08:59;56674.19;;;-146.93;35.91
21664;BME280;10993;52.510;13.456;2023-05-27T22:14:01;56516.25;;;-146.93;36.09
21664;BME280;10993;52.510;13.456;2023-05-27T22:19:02;56613.44;;;-146.93;36.15
21664;BME280;10993;52.510;13.456;2023-05-27T22:24:02;56595.22;;;-146.93;36.60
21664;BME280;10993;52.510;13.456;2023-05-27T22:29:04;56603.31;;;-146.93;36.85
21664;BME280;10993;52.510;13.456;2023-05-27T22:34:04;56587.13;;;-146.93;37.20
21664;BME280;10993;52.510;13.456;2023-05-27T22:39:05;56585.09;;;-146.93;37.30
21664;BME280;10993;52.510;13.456;2023-05-27T22:44:06;56619.50;;;-146.93;37.77
21664;BME280;10993;52.510;13.456;2023-05-27T22:49:07;56581.03;;;-146.93;38.25
21664;BME280;10993;52.510;13.456;2023-05-27T22:54:09;56487.91;;;-146.93;38.55
21664;BME280;10993;52.510;13.456;2023-05-27T22:59:12;56583.06;;;-146.93;38.67
21664;BME280;10993;52.510;13.456;2023-05-27T23:04:12;56544.59;;;-146.93;39.05
21664;BME280;10993;52.510;13.456;2023-05-27T23:09:13;56546.63;;;-146.93;39.44
21664;BME280;10993;52.510;13.456;2023-05-27T23:14:14;56564.84;;;-146.93;40.03
21664;BME280;10993;52.510;13.456;2023-05-27T23:19:15;56508.16;;;-146.93;40.59
21664;BME280;10993;52.510;13.456;2023-05-27T23:24:15;56526.38;;;-146.93;41.18
21664;BME280;10993;52.510;13.456;2023-05-27T23:29:17;56526.38;;;-146.93;41.77
21664;BME280;10993;52.510;13.456;2023-05-27T23:34:17;56427.16;;;-146.93;42.35
21664;BME280;10993;52.510;13.456;2023-05-27T23:39:19;56496.00;;;-146.93;43.11
21664;BME280;10993;52.510;13.456;2023-05-27T23:44:21;56471.72;;;-146.93;43.78
21664;BME280;10993;52.510;13.456;2023-05-27T23:49:21;56483.84;;;-146.93;44.29
21664;BME280;10993;52.510;13.456;2023-05-27T23:54:22;56449.44;;;-146.93;45.07
21664;BME280;10993;52.510;13.456;2023-05-27T23:59:23;56406.91;;;-146.93;45.70
